Time;durP1;ratioP1;P1;durP2;ratioP2;P2;SDS_P1;SDS_P2;PMS_P1;PMS_P2;Temp;Humidity;BMP_temperature;BMP_pressure;BME280_temperature;BME280_humidity;BME280_pressure;Samples;Min_cycle;Max_cycle;Signal;HPM_P1;HPM_P2
2021/05/21 00:00:41;;;;;;;1.00;0.70;;;23.80;58.80;;;;;;5074847;28;20475;-91
2021/05/21 00:03:07;;;;;;;1.00;0.87;;;24.00;59.00;;;;;;5075104;28;20546;-90
2021/05/21 00:05:33;;;;;;;1.10;0.80;;;24.00;59.00;;;;;;5074897;28;20449;-91
2021/05/21 00:08:00;;;;;;;1.20;1.00;;;24.00;59.00;;;;;;5075097;28;20913;-90
2021/05/21 00:10:26;;;;;;;1.17;0.90;;;24.00;59.00;;;;;;5075322;28;20540;-89
2021/05/21 00:12:52;;;;;;;1.00;0.83;;;24.00;59.00;;;;;;5074696;28;20452;-90
2021/05/21 00:15:19;;;;;;;1.10;0.80;;;24.00;59.00;;;;;;5074829;28;20445;-90
2021/05/21 00:17:47;;;;;;;1.30;1.00;;;24.00;59.00;;;;;;5074666;28;20506;-90
2021/05/21 00:20:14;;;;;;;1.83;0.97;;;24.00;59.00;;;;;;5074591;28;20853;-91
2021/05/21 00:22:41;;;;;;;1.10;0.80;;;24.00;58.90;;;;;;5074563;28;20447;-90
2021/05/21 00:25:08;;;;;;;1.07;0.90;;;24.00;59.00;;;;;;5074422;28;20452;-90
2021/05/21 00:27:34;;;;;;;1.07;0.80;;;24.00;59.00;;;;;;5074556;28;20437;-90
2021/05/21 00:30:00;;;;;;;1.20;0.80;;;23.90;58.90;;;;;;5074196;28;20448;-90
2021/05/21 00:32:27;;;;;;;1.00;0.80;;;23.90;58.90;;;;;;5074637;28;20454;-90
2021/05/21 00:34:54;;;;;;;1.40;0.80;;;24.00;59.00;;;;;;5074063;28;20852;-90
2021/05/21 00:37:20;;;;;;;1.90;0.93;;;24.00;59.00;;;;;;5074536;28;20456;-90
2021/05/21 00:39:46;;;;;;;1.30;0.80;;;24.00;59.00;;;;;;5073827;28;20474;-90
2021/05/21 00:42:13;;;;;;;1.00;0.70;;;24.00;59.00;;;;;;5074210;28;20559;-90
2021/05/21 00:44:39;;;;;;;1.73;1.30;;;24.00;59.00;;;;;;5074172;28;20522;-90
2021/05/21 00:47:05;;;;;;;1.03;0.80;;;23.90;58.90;;;;;;5073797;28;20449;-90
2021/05/21 00:49:32;;;;;;;1.00;0.80;;;24.00;59.00;;;;;;5073927;28;20445;-90
2021/05/21 00:52:03;;;;;;;1.00;0.80;;;24.00;59.00;;;;;;5074337;28;20531;-90
2021/05/21 00:54:29;;;;;;;1.10;0.80;;;23.90;58.80;;;;;;5080509;28;20487;-90
2021/05/21 00:56:56;;;;;;;1.10;0.87;;;23.90;58.90;;;;;;5081867;28;20449;-90
2021/05/21 00:59:23;;;;;;;1.20;1.10;;;23.90;59.50;;;;;;5084731;28;20535;-89
2021/05/21 01:01:51;;;;;;;1.10;0.90;;;23.90;58.90;;;;;;5079853;28;20461;-91
2021/05/21 01:04:18;;;;;;;2.80;1.00;;;23.90;58.90;;;;;;5077323;28;20448;-89
2021/05/21 01:06:44;;;;;;;1.10;0.80;;;24.00;59.00;;;;;;5076566;28;20444;-90
2021/05/21 01:09:11;;;;;;;1.23;0.97;;;23.90;58.90;;;;;;5074534;28;20434;-94
2021/05/21 01:11:39;;;;;;;1.10;0.77;;;23.90;58.90;;;;;;5074240;28;20955;-89
2021/05/21 01:14:06;;;;;;;0.90;0.70;;;23.90;58.90;;;;;;5074495;28;20541;-90
2021/05/21 01:16:32;;;;;;;1.07;0.80;;;23.90;58.90;;;;;;5074313;28;20442;-90
2021/05/21 01:19:04;;;;;;;3.63;1.30;;;23.90;58.90;;;;;;5074779;28;20460;-89
2021/05/21 01:21:32;;;;;;;1.00;0.80;;;24.00;59.00;;;;;;5074763;28;20479;-90
2021/05/21 01:23:58;;;;;;;1.30;0.83;;;24.00;59.00;;;;;;5073972;28;20437;-90
2021/05/21 01:26:25;;;;;;;1.30;0.90;;;24.00;59.00;;;;;;5074141;28;20442;-89
2021/05/21 01:28:53;;;;;;;1.00;0.77;;;24.00;59.00;;;;;;5074135;28;20555;-90
2021/05/21 01:31:19;;;;;;;1.13;0.90;;;23.90;58.90;;;;;;5073975;28;20468;-89
2021/05/21 01:33:45;;;;;;;1.00;0.77;;;23.90;58.90;;;;;;5073834;28;20908;-89
2021/05/21 01:36:12;;;;;;;1.00;0.70;;;24.00;59.00;;;;;;5074116;28;20449;-89
2021/05/21 01:38:53;;;;;;;1.00;0.80;;;23.90;58.90;;;;;;5073881;28;20511;-89
2021/05/21 01:41:20;;;;;;;1.00;0.70;;;23.90;58.90;;;;;;5074560;28;20444;-93
2021/05/21 01:43:46;;;;;;;1.23;1.13;;;24.00;59.10;;;;;;5074062;28;20485;-89
2021/05/21 01:46:16;;;;;;;0.90;0.80;;;23.90;58.90;;;;;;5073654;28;20444;-89
2021/05/21 01:48:45;;;;;;;1.10;0.80;;;23.90;58.90;;;;;;5073587;28;20472;-89
2021/05/21 01:51:11;;;;;;;1.10;0.90;;;23.90;58.90;;;;;;5073740;28;20441;-89
2021/05/21 01:53:37;;;;;;;1.07;0.80;;;23.90;58.90;;;;;;5073519;28;20990;-89
2021/05/21 01:56:05;;;;;;;1.03;0.93;;;23.90;58.90;;;;;;5073892;28;20450;-89
2021/05/21 01:58:32;;;;;;;1.00;0.80;;;23.90;58.90;;;;;;5073846;28;20474;-89
2021/05/21 02:00:58;;;;;;;1.63;1.00;;;23.80;58.80;;;;;;5073908;28;20469;-89
2021/05/21 02:03:29;;;;;;;1.00;0.70;;;23.90;58.90;;;;;;5073570;28;20441;-89
2021/05/21 02:05:56;;;;;;;1.30;0.80;;;23.80;58.80;;;;;;5073796;28;20461;-89
2021/05/21 02:08:24;;;;;;;1.10;0.80;;;23.90;58.90;;;;;;5073433;28;20447;-89
2021/05/21 02:10:50;;;;;;;1.00;0.70;;;23.90;58.90;;;;;;5073632;28;20946;-88
2021/05/21 02:13:18;;;;;;;1.10;0.90;;;23.90;58.80;;;;;;5074232;28;20442;-89
2021/05/21 02:15:44;;;;;;;0.90;0.60;;;23.80;58.80;;;;;;5077528;28;20444;-93
2021/05/21 02:18:11;;;;;;;1.00;0.77;;;23.90;58.90;;;;;;5077128;28;20445;-89
2021/05/21 02:20:38;;;;;;;1.10;0.80;;;23.90;58.90;;;;;;5059166;28;20441;-90
2021/05/21 02:23:05;;;;;;;0.90;0.70;;;23.80;58.80;;;;;;5077270;28;20444;-89
2021/05/21 02:25:31;;;;;;;1.10;0.80;;;24.00;59.00;;;;;;5077447;28;20461;-89
2021/05/21 02:27:58;;;;;;;1.07;0.73;;;24.00;59.00;;;;;;5077817;28;20444;-89
2021/05/21 02:30:26;;;;;;;1.40;1.00;;;24.00;59.00;;;;;;5076984;28;20552;-90
2021/05/21 02:32:52;;;;;;;1.07;0.77;;;23.80;58.80;;;;;;5077838;28;20963;-90
2021/05/21 02:35:19;;;;;;;0.90;0.70;;;23.80;58.80;;;;;;5077879;28;20492;-89
2021/05/21 02:37:47;;;;;;;1.00;0.80;;;23.80;58.80;;;;;;5079341;28;20635;-90
2021/05/21 02:40:14;;;;;;;1.10;0.90;;;23.80;58.80;;;;;;5062196;28;21055;-90
2021/05/21 02:42:40;;;;;;;1.20;0.97;;;23.80;58.80;;;;;;5079741;28;20813;-89
2021/05/21 02:45:08;;;;;;;1.50;1.00;;;24.00;59.00;;;;;;5078218;28;20455;-90
2021/05/21 02:47:35;;;;;;;1.10;0.90;;;23.80;58.80;;;;;;5077104;28;20438;-90
2021/05/21 02:50:01;;;;;;;1.20;0.70;;;24.00;59.00;;;;;;5076853;28;20450;-90
2021/05/21 02:52:28;;;;;;;1.00;0.77;;;23.80;58.90;;;;;;5076343;28;20442;-89
2021/05/21 02:54:54;;;;;;;1.00;0.87;;;23.80;58.90;;;;;;5075936;28;20490;-90
2021/05/21 02:57:23;;;;;;;1.10;0.80;;;23.80;58.90;;;;;;5076228;28;20446;-90
2021/05/21 02:59:49;;;;;;;1.97;0.80;;;24.00;59.10;;;;;;5075906;28;20430;-90
2021/05/21 03:02:16;;;;;;;1.87;0.93;;;23.80;58.90;;;;;;5076213;28;20445;-90
2021/05/21 03:04:43;;;;;;;1.07;0.83;;;23.80;58.90;;;;;;5076087;28;20441;-90
2021/05/21 03:07:09;;;;;;;1.00;0.80;;;23.80;58.90;;;;;;5076147;28;20446;-94
2021/05/21 03:09:36;;;;;;;1.10;0.80;;;23.80;58.90;;;;;;5075794;28;20928;-89
2021/05/21 03:12:02;;;;;;;1.00;0.90;;;24.00;59.10;;;;;;5075883;28;20440;-92
2021/05/21 03:14:28;;;;;;;1.03;0.70;;;23.80;58.90;;;;;;5075603;28;20478;-90
2021/05/21 03:16:55;;;;;;;1.10;0.80;;;23.80;58.90;;;;;;5075712;28;20786;-90
2021/05/21 03:19:21;;;;;;;1.00;0.77;;;23.80;58.90;;;;;;5075846;28;20446;-93
2021/05/21 03:21:48;;;;;;;1.03;0.83;;;23.80;58.90;;;;;;5075578;28;20445;-90
2021/05/21 03:24:14;;;;;;;1.20;0.80;;;23.80;58.90;;;;;;5075282;28;20442;-90
2021/05/21 03:26:41;;;;;;;0.90;0.70;;;23.80;58.90;;;;;;5075527;28;20928;-90
2021/05/21 03:29:07;;;;;;;1.07;0.80;;;24.00;59.10;;;;;;5076261;28;20449;-90
2021/05/21 03:31:33;;;;;;;1.00;0.80;;;23.80;58.90;;;;;;5075326;28;20462;-90
2021/05/21 03:34:00;;;;;;;1.10;0.90;;;23.80;58.90;;;;;;5075096;28;20991;-90
2021/05/21 03:36:26;;;;;;;0.90;0.70;;;23.80;58.90;;;;;;5075617;28;20453;-90
2021/05/21 03:38:53;;;;;;;1.10;0.70;;;23.80;58.90;;;;;;5075167;28;21057;-90
2021/05/21 03:41:19;;;;;;;1.10;0.70;;;23.80;58.90;;;;;;5075143;28;20796;-90
2021/05/21 03:43:46;;;;;;;0.97;0.73;;;23.80;58.90;;;;;;5076047;28;20449;-90
2021/05/21 03:46:12;;;;;;;1.00;0.73;;;23.80;58.90;;;;;;5075354;28;20446;-94
2021/05/21 03:48:38;;;;;;;1.00;0.70;;;23.80;58.90;;;;;;5075080;28;20455;-90
2021/05/21 03:51:05;;;;;;;1.17;0.70;;;23.80;58.90;;;;;;5074920;28;20992;-90
2021/05/21 03:53:31;;;;;;;1.00;0.80;;;23.80;58.90;;;;;;5074966;28;20477;-90
2021/05/21 03:55:59;;;;;;;0.90;0.63;;;23.80;58.90;;;;;;5075125;28;20465;-90
2021/05/21 03:58:25;;;;;;;1.00;0.70;;;23.80;59.00;;;;;;5075163;28;20913;-93
2021/05/21 04:00:51;;;;;;;1.10;0.80;;;23.80;59.00;;;;;;5074740;28;20457;-90
2021/05/21 04:03:18;;;;;;;0.90;0.63;;;23.80;58.90;;;;;;5074915;28;20437;-90
2021/05/21 04:05:44;;;;;;;1.00;0.80;;;23.80;59.00;;;;;;5075084;28;20490;-90
2021/05/21 04:08:10;;;;;;;1.00;0.70;;;23.80;59.00;;;;;;5075321;28;20581;-90
2021/05/21 04:10:36;;;;;;;1.00;0.70;;;23.80;59.00;;;;;;5074868;28;20981;-90
2021/05/21 04:13:04;;;;;;;1.00;0.80;;;23.70;58.90;;;;;;5075010;28;20524;-89
2021/05/21 04:15:31;;;;;;;1.00;0.77;;;23.80;59.00;;;;;;5074729;28;20482;-90
2021/05/21 04:17:57;;;;;;;1.00;0.73;;;23.80;59.00;;;;;;5074855;28;20478;-90
2021/05/21 04:20:23;;;;;;;1.00;0.70;;;23.80;59.00;;;;;;5074904;28;20449;-89
2021/05/21 04:22:50;;;;;;;0.90;0.70;;;23.80;59.00;;;;;;5075170;28;20445;-91
2021/05/21 04:25:16;;;;;;;1.27;0.77;;;23.80;59.00;;;;;;5074520;28;20946;-89
2021/05/21 04:27:42;;;;;;;1.67;0.90;;;23.80;59.20;;;;;;5074887;28;20440;-88
2021/05/21 04:30:10;;;;;;;1.10;1.00;;;23.70;59.10;;;;;;5074814;28;20806;-89
2021/05/21 04:32:36;;;;;;;1.10;0.77;;;23.70;59.10;;;;;;5074705;28;20449;-90
2021/05/21 04:35:03;;;;;;;1.40;1.00;;;23.80;59.30;;;;;;5074303;28;20486;-89
2021/05/21 04:37:30;;;;;;;2.10;0.90;;;23.70;59.20;;;;;;5074393;28;20446;-89
2021/05/21 04:39:56;;;;;;;1.00;0.80;;;23.80;59.40;;;;;;5074637;28;20468;-88
2021/05/21 04:42:22;;;;;;;1.10;1.00;;;23.80;59.70;;;;;;5074459;28;20448;-89
2021/05/21 04:44:48;;;;;;;1.50;1.33;;;23.80;60.00;;;;;;5074477;28;20445;-89
2021/05/21 04:47:15;;;;;;;1.20;1.00;;;23.70;59.80;;;;;;5074482;28;20557;-89
2021/05/21 04:49:42;;;;;;;1.20;1.10;;;23.70;59.70;;;;;;5074222;28;20449;-89
2021/05/21 04:52:09;;;;;;;2.33;1.47;;;23.80;59.80;;;;;;5074585;28;20539;-90
2021/05/21 04:54:37;;;;;;;1.50;1.40;;;23.80;59.80;;;;;;5073901;28;20542;-89
2021/05/21 04:57:04;;;;;;;1.20;1.10;;;23.80;59.90;;;;;;5073787;28;20449;-84
2021/05/21 04:59:31;;;;;;;1.17;1.00;;;23.80;59.90;;;;;;5074462;28;20444;-86
2021/05/21 05:01:57;;;;;;;1.27;1.17;;;23.80;59.80;;;;;;5073754;28;21037;-86
2021/05/21 05:04:24;;;;;;;1.40;1.10;;;23.70;59.80;;;;;;5074083;28;20448;-86
2021/05/21 05:06:51;;;;;;;1.30;1.10;;;23.80;60.70;;;;;;5074054;28;20808;-86
2021/05/21 05:09:17;;;;;;;3.80;1.23;;;23.80;59.90;;;;;;5073908;28;20490;-85
2021/05/21 05:11:44;;;;;;;1.40;1.30;;;23.80;59.90;;;;;;5073999;28;20472;-88
2021/05/21 05:14:12;;;;;;;1.20;1.00;;;23.80;59.90;;;;;;5073749;28;20488;-86
2021/05/21 05:16:39;;;;;;;1.30;1.13;;;23.80;60.10;;;;;;5073635;28;20430;-86
2021/05/21 05:19:06;;;;;;;1.20;1.10;;;23.90;60.10;;;;;;5073647;28;20436;-86
2021/05/21 05:21:37;;;;;;;1.70;1.10;;;23.80;60.00;;;;;;5073515;28;20441;-94
2021/05/21 05:24:05;;;;;;;2.87;1.10;;;23.90;60.30;;;;;;5075882;28;20920;-89
2021/05/21 05:26:32;;;;;;;1.53;1.20;;;23.80;60.00;;;;;;5074148;28;20524;-83
2021/05/21 05:28:59;;;;;;;1.50;1.00;;;23.80;59.80;;;;;;5073506;28;20433;-83
2021/05/21 05:31:25;;;;;;;1.67;1.10;;;23.80;59.70;;;;;;5073608;28;20460;-83
2021/05/21 05:33:52;;;;;;;1.70;1.10;;;23.80;59.70;;;;;;5073625;28;20472;-87
2021/05/21 05:36:20;;;;;;;1.30;1.20;;;23.80;59.70;;;;;;5074060;28;20441;-86
2021/05/21 05:38:47;;;;;;;1.10;0.83;;;23.80;59.70;;;;;;5075274;28;20776;-87
2021/05/21 05:41:13;;;;;;;2.50;1.17;;;23.80;60.00;;;;;;5074200;28;20444;-87
2021/05/21 05:43:40;;;;;;;1.20;1.10;;;23.80;59.90;;;;;;5073866;28;20442;-87
2021/05/21 05:46:09;;;;;;;1.30;1.13;;;23.80;59.90;;;;;;5073277;28;20976;-87
2021/05/21 05:48:35;;;;;;;1.23;1.00;;;23.80;60.90;;;;;;5077100;28;20992;-87
2021/05/21 05:51:02;;;;;;;1.10;0.90;;;23.80;60.20;;;;;;5079761;28;20459;-86
2021/05/21 05:53:33;;;;;;;1.43;1.00;;;23.80;60.30;;;;;;5080612;28;20498;-82
2021/05/21 05:56:01;;;;;;;1.87;1.10;;;23.80;60.40;;;;;;5083105;28;20438;-88
2021/05/21 05:58:27;;;;;;;1.30;1.07;;;23.80;60.00;;;;;;5088004;28;20493;-83
2021/05/21 06:00:54;;;;;;;1.87;1.07;;;23.80;59.80;;;;;;5078985;28;20463;-85
2021/05/21 06:03:20;;;;;;;1.40;1.10;;;23.90;59.90;;;;;;5080506;28;20826;-91
2021/05/21 06:05:47;;;;;;;1.30;1.10;;;23.80;59.80;;;;;;5081711;28;20441;-89
2021/05/21 06:08:13;;;;;;;1.60;0.90;;;23.90;59.80;;;;;;5079678;28;20528;-89
2021/05/21 06:10:39;;;;;;;1.20;1.10;;;23.90;59.80;;;;;;5077974;28;20786;-89
2021/05/21 06:13:08;;;;;;;1.40;1.30;;;23.80;59.80;;;;;;5077375;28;20452;-82
2021/05/21 06:15:34;;;;;;;3.83;1.00;;;23.80;59.80;;;;;;5076972;28;20482;-82
2021/05/21 06:18:01;;;;;;;1.20;1.00;;;23.80;59.80;;;;;;5076719;28;20442;-82
2021/05/21 06:20:29;;;;;;;1.30;1.10;;;23.80;59.70;;;;;;5076857;28;20486;-87
2021/05/21 06:22:55;;;;;;;2.23;1.10;;;23.80;59.70;;;;;;5077082;28;20525;-87
2021/05/21 06:25:24;;;;;;;5.90;1.00;;;23.80;59.50;;;;;;5077023;28;20502;-87
2021/05/21 06:27:51;;;;;;;1.57;1.00;;;23.80;59.70;;;;;;5076357;28;20444;-87
2021/05/21 06:30:19;;;;;;;4.60;1.00;;;23.90;59.80;;;;;;5076563;28;20471;-86
2021/05/21 06:32:45;;;;;;;3.57;1.10;;;23.80;59.90;;;;;;5076699;28;20475;-87
2021/05/21 06:35:12;;;;;;;1.47;0.90;;;23.80;59.90;;;;;;5076417;28;20570;-88
2021/05/21 06:37:39;;;;;;;2.00;1.03;;;23.90;60.00;;;;;;5076279;28;20444;-87
2021/05/21 06:40:07;;;;;;;1.43;0.90;;;23.80;59.90;;;;;;5076191;28;20508;-88
2021/05/21 06:42:33;;;;;;;1.20;0.80;;;23.80;60.00;;;;;;5076470;28;20449;-87
2021/05/21 06:45:00;;;;;;;1.13;1.00;;;23.90;60.90;;;;;;5076546;28;20452;-87
2021/05/21 06:47:27;;;;;;;1.20;1.10;;;23.80;59.90;;;;;;5076622;28;20446;-87
2021/05/21 06:49:53;;;;;;;1.80;1.20;;;23.80;60.00;;;;;;5081852;28;20456;-86
2021/05/21 06:52:20;;;;;;;2.03;0.90;;;23.90;60.10;;;;;;5083372;28;20467;-87
2021/05/21 06:54:46;;;;;;;1.20;1.10;;;23.80;60.00;;;;;;5080937;28;20523;-87
2021/05/21 06:57:13;;;;;;;2.03;0.90;;;23.90;60.10;;;;;;5076155;28;20494;-87
2021/05/21 06:59:39;;;;;;;1.10;0.80;;;23.80;60.00;;;;;;5076774;28;20444;-87
2021/05/21 07:02:05;;;;;;;3.73;1.37;;;23.80;60.10;;;;;;5076416;28;20965;-87
2021/05/21 07:04:32;;;;;;;1.10;1.00;;;23.80;60.10;;;;;;5076182;28;20434;-87
2021/05/21 07:06:59;;;;;;;1.17;1.07;;;23.80;60.10;;;;;;5076114;28;20441;-87
2021/05/21 07:09:25;;;;;;;1.10;0.80;;;23.80;60.10;;;;;;5076102;28;20528;-87
2021/05/21 07:11:51;;;;;;;1.40;1.00;;;23.90;60.20;;;;;;5076025;28;20441;-87
2021/05/21 07:14:18;;;;;;;1.27;1.10;;;23.80;60.10;;;;;;5075627;28;20516;-87
2021/05/21 07:16:44;;;;;;;2.50;0.90;;;24.00;60.30;;;;;;5075764;28;20487;-87
2021/05/21 07:19:14;;;;;;;7.87;1.03;;;23.80;60.10;;;;;;5075375;28;20477;-88
2021/05/21 07:21:41;;;;;;;1.40;0.90;;;23.80;60.10;;;;;;5075681;28;20448;-87
2021/05/21 07:24:08;;;;;;;1.40;1.03;;;23.80;60.20;;;;;;5076061;28;20446;-87
2021/05/21 07:26:35;;;;;;;1.70;0.93;;;23.80;60.20;;;;;;5076041;28;20444;-87
2021/05/21 07:29:01;;;;;;;1.07;0.80;;;23.80;60.20;;;;;;5075878;28;20447;-88
2021/05/21 07:31:28;;;;;;;1.30;0.87;;;23.90;60.30;;;;;;5075388;28;20465;-86
2021/05/21 07:33:54;;;;;;;1.10;0.90;;;23.80;60.30;;;;;;5075212;28;20473;-86
2021/05/21 07:36:23;;;;;;;1.27;0.83;;;24.00;60.50;;;;;;5075359;28;20944;-87
2021/05/21 07:38:50;;;;;;;1.00;0.80;;;23.80;60.30;;;;;;5075264;28;20495;-87
2021/05/21 07:41:18;;;;;;;2.33;1.00;;;23.80;60.30;;;;;;5074991;28;20443;-87
2021/05/21 07:43:45;;;;;;;1.27;0.80;;;23.80;60.30;;;;;;5076300;28;20445;-87
2021/05/21 07:46:11;;;;;;;2.23;0.90;;;23.90;60.40;;;;;;5076736;28;20433;-86
2021/05/21 07:48:37;;;;;;;1.30;1.10;;;23.80;60.30;;;;;;5075254;28;20445;-87
2021/05/21 07:51:04;;;;;;;1.37;1.00;;;23.80;60.30;;;;;;5075367;28;20441;-87
2021/05/21 07:53:33;;;;;;;1.30;0.83;;;23.90;60.50;;;;;;5075364;28;20455;-87
2021/05/21 07:56:00;;;;;;;2.10;0.93;;;23.80;60.40;;;;;;5076707;28;20450;-87
2021/05/21 07:58:27;;;;;;;1.00;0.70;;;23.90;60.50;;;;;;5075470;28;20498;-87
2021/05/21 08:00:53;;;;;;;1.50;1.03;;;23.90;60.70;;;;;;5075129;28;20551;-87
2021/05/21 08:03:19;;;;;;;1.10;0.90;;;23.90;60.60;;;;;;5074817;28;20520;-87
2021/05/21 08:05:47;;;;;;;1.10;0.80;;;23.90;60.60;;;;;;5074860;28;20490;-87
2021/05/21 08:08:14;;;;;;;1.43;1.00;;;23.90;60.60;;;;;;5074823;28;20541;-87
2021/05/21 08:10:40;;;;;;;1.00;0.80;;;24.00;60.70;;;;;;5073747;28;20511;-87
2021/05/21 08:13:07;;;;;;;2.47;1.00;;;23.90;60.50;;;;;;5074518;28;20473;-86
2021/05/21 08:15:33;;;;;;;1.17;0.80;;;23.90;60.50;;;;;;5074668;28;20506;-87
2021/05/21 08:18:00;;;;;;;1.40;1.13;;;23.90;60.40;;;;;;5074807;28;20493;-87
2021/05/21 08:20:26;;;;;;;1.30;1.00;;;23.90;60.50;;;;;;5074734;28;20455;-87
2021/05/21 08:22:53;;;;;;;1.30;1.10;;;24.00;60.70;;;;;;5074782;28;20437;-87
2021/05/21 08:25:19;;;;;;;1.00;0.70;;;24.00;60.60;;;;;;5074665;28;20549;-87
2021/05/21 08:27:45;;;;;;;1.10;0.80;;;24.00;60.70;;;;;;5074399;28;20543;-87
2021/05/21 08:30:14;;;;;;;1.00;0.70;;;24.00;60.70;;;;;;5074042;28;21063;-87
2021/05/21 08:32:40;;;;;;;1.63;1.07;;;24.00;60.80;;;;;;5074151;28;20437;-87
2021/05/21 08:35:07;;;;;;;1.30;0.93;;;24.00;60.80;;;;;;5074442;28;20483;-86
2021/05/21 08:37:34;;;;;;;1.43;1.10;;;24.00;60.80;;;;;;5074069;28;20502;-87
2021/05/21 08:40:00;;;;;;;1.10;0.87;;;24.10;60.80;;;;;;5074186;28;20534;-87
2021/05/21 08:42:35;;;;;;;1.00;0.87;;;24.10;60.80;;;;;;5074323;28;20777;-87
2021/05/21 08:45:02;;;;;;;3.57;1.00;;;24.10;60.80;;;;;;5074388;28;20441;-88
2021/05/21 08:47:33;;;;;;;1.43;0.93;;;24.10;60.70;;;;;;5074284;28;20941;-88
2021/05/21 08:50:02;;;;;;;1.73;0.90;;;24.10;60.80;;;;;;5074934;28;20437;-88
2021/05/21 08:52:29;;;;;;;1.03;0.90;;;24.30;60.90;;;;;;5074963;28;20447;-87
2021/05/21 08:54:55;;;;;;;1.30;0.90;;;24.20;60.90;;;;;;5074285;28;20841;-88
2021/05/21 08:57:22;;;;;;;1.83;1.23;;;24.20;60.80;;;;;;5074129;28;20437;-88
2021/05/21 08:59:48;;;;;;;1.30;0.90;;;24.20;60.80;;;;;;5074542;28;20466;-88
2021/05/21 09:02:22;;;;;;;1.57;0.97;;;24.20;60.80;;;;;;5075470;28;20469;-88
2021/05/21 09:04:55;;;;;;;1.57;0.80;;;24.30;60.80;;;;;;5073916;28;20442;-88
2021/05/21 09:07:26;;;;;;;1.30;1.00;;;24.30;60.80;;;;;;5073590;28;20472;-87
2021/05/21 09:09:52;;;;;;;1.30;0.80;;;24.30;60.80;;;;;;5073853;28;20546;-88
2021/05/21 09:12:20;;;;;;;1.43;1.00;;;24.30;60.70;;;;;;5073757;28;20439;-88
2021/05/21 09:15:06;;;;;;;1.60;0.90;;;24.40;60.90;;;;;;5073208;28;20572;-87
2021/05/21 09:17:33;;;;;;;1.53;1.00;;;24.40;60.70;;;;;;5073773;28;20453;-88
2021/05/21 09:20:00;;;;;;;1.10;0.87;;;24.40;60.80;;;;;;5073248;28;20455;-88
2021/05/21 09:22:27;;;;;;;1.20;0.90;;;24.40;61.80;;;;;;5073381;28;20438;-87
2021/05/21 09:24:53;;;;;;;1.70;0.90;;;24.40;60.90;;;;;;5073681;28;20470;-87
2021/05/21 09:27:20;;;;;;;1.13;0.83;;;24.50;60.80;;;;;;5073505;28;20445;-88
2021/05/21 09:29:48;;;;;;;1.83;0.90;;;24.40;60.80;;;;;;5073571;28;20878;-88
2021/05/21 09:32:26;;;;;;;1.30;1.10;;;24.50;60.80;;;;;;5073550;28;20587;-88
2021/05/21 09:35:06;;;;;;;1.30;0.80;;;24.50;60.70;;;;;;5073404;28;20492;-88
2021/05/21 09:37:34;;;;;;;1.50;1.00;;;24.50;60.70;;;;;;5073319;28;20423;-88
2021/05/21 09:40:03;;;;;;;1.07;0.80;;;24.50;60.70;;;;;;5073267;28;20987;-88
2021/05/21 09:42:29;;;;;;;1.30;1.00;;;24.50;60.70;;;;;;5073290;28;20446;-87
2021/05/21 09:45:14;;;;;;;1.30;0.90;;;24.70;60.90;;;;;;5073296;28;20985;-91
2021/05/21 09:47:58;;;;;;;2.40;1.40;;;24.60;60.50;;;;;;5073645;28;20434;-91
2021/05/21 09:50:37;;;;;;;2.80;1.40;;;24.60;58.60;;;;;;5073334;28;20448;-90
2021/05/21 09:53:10;;;;;;;2.63;1.23;;;24.60;57.00;;;;;;5074499;28;20450;-91
2021/05/21 09:55:39;;;;;;;2.50;1.40;;;24.50;55.90;;;;;;5074043;28;20535;-89
2021/05/21 09:58:06;;;;;;;3.10;1.00;;;24.50;56.40;;;;;;5072968;28;20450;-86
2021/05/21 10:00:32;;;;;;;1.47;1.10;;;24.40;56.60;;;;;;5073054;28;21020;-87
2021/05/21 10:03:01;;;;;;;3.73;1.80;;;24.60;57.10;;;;;;5073194;28;20461;-88
2021/05/21 10:05:28;;;;;;;5.40;1.33;;;24.40;57.30;;;;;;5073071;28;20500;-91
2021/05/21 10:07:55;;;;;;;2.63;1.27;;;24.40;57.60;;;;;;5073278;28;20456;-90
2021/05/21 10:10:25;;;;;;;3.73;1.43;;;24.40;57.80;;;;;;5073744;28;20454;-91
2021/05/21 10:12:52;;;;;;;5.20;1.87;;;24.40;57.90;;;;;;5073565;28;20532;-90
2021/05/21 10:15:18;;;;;;;4.23;1.73;;;24.40;58.00;;;;;;5073004;28;20478;-91
2021/05/21 10:17:45;;;;;;;3.87;1.10;;;24.40;58.10;;;;;;5073075;28;20446;-90
2021/05/21 10:20:17;;;;;;;2.77;1.40;;;24.50;58.10;;;;;;5073017;28;20541;-90
2021/05/21 10:22:46;;;;;;;3.30;1.00;;;24.50;58.20;;;;;;5073350;28;20445;-90
2021/05/21 10:25:23;;;;;;;4.10;1.20;;;24.60;58.40;;;;;;5073308;28;20445;-91
2021/05/21 10:27:52;;;;;;;2.80;1.30;;;24.50;58.40;;;;;;5073880;28;20438;-91
2021/05/21 10:30:22;;;;;;;1.50;1.10;;;24.50;58.50;;;;;;5073432;28;20493;-91
2021/05/21 10:32:49;;;;;;;3.20;1.30;;;24.50;58.50;;;;;;5073787;28;20476;-84
2021/05/21 10:35:19;;;;;;;3.17;1.13;;;24.50;58.60;;;;;;5075058;28;20495;-88
2021/05/21 10:37:47;;;;;;;2.30;1.27;;;24.50;58.00;;;;;;5077054;28;20461;-88
2021/05/21 10:40:21;;;;;;;2.00;1.40;;;24.60;58.20;;;;;;5077052;28;20480;-91
2021/05/21 10:42:50;;;;;;;2.13;1.30;;;24.60;58.30;;;;;;5076431;28;20939;-94
2021/05/21 10:45:18;;;;;;;4.70;1.40;;;24.50;58.50;;;;;;5076605;28;20437;-88
2021/05/21 10:47:46;;;;;;;2.13;1.30;;;24.50;58.60;;;;;;5076415;28;20457;-88
2021/05/21 10:50:18;;;;;;;2.83;1.33;;;24.50;58.70;;;;;;5076278;28;20437;-87
2021/05/21 10:52:59;;;;;;;1.73;1.10;;;24.60;58.70;;;;;;5077004;28;20435;-92
2021/05/21 10:55:43;;;;;;;2.17;1.10;;;24.70;58.80;;;;;;5076474;28;20518;-87
2021/05/21 10:58:17;;;;;;;1.87;1.10;;;24.80;58.80;;;;;;5076968;28;20845;-89
2021/05/21 11:01:29;;;;;;;1.80;1.10;;;24.80;59.00;;;;;;5076407;28;20454;-88
2021/05/21 11:04:09;;;;;;;3.47;1.83;;;24.80;58.90;;;;;;5076865;28;21064;-88
2021/05/21 11:06:52;;;;;;;1.77;0.93;;;24.80;59.00;;;;;;5056786;28;20442;-93
2021/05/21 11:09:25;;;;;;;3.23;1.17;;;24.80;59.00;;;;;;5056833;28;20434;-88
2021/05/21 11:12:03;;;;;;;1.70;1.27;;;24.80;59.10;;;;;;5060374;28;20435;-87
2021/05/21 11:14:34;;;;;;;2.13;1.10;;;24.90;59.20;;;;;;5067570;28;21013;-87
2021/05/21 11:17:08;;;;;;;2.13;1.40;;;24.90;59.40;;;;;;5067663;28;20459;-87
2021/05/21 11:19:35;;;;;;;1.80;1.10;;;25.00;59.60;;;;;;5083064;28;20536;-88
2021/05/21 11:22:08;;;;;;;2.70;1.53;;;24.90;59.80;;;;;;5079747;28;20864;-88
2021/05/21 11:24:36;;;;;;;2.47;1.60;;;25.00;60.00;;;;;;5059368;28;20452;-88
2021/05/21 11:27:06;;;;;;;2.83;1.40;;;25.00;60.30;;;;;;5074204;28;20477;-88
2021/05/21 11:29:34;;;;;;;2.20;1.20;;;25.00;60.70;;;;;;5077008;28;20515;-89
2021/05/21 11:32:01;;;;;;;3.57;1.30;;;25.00;60.50;;;;;;5076543;28;20479;-88
2021/05/21 11:34:28;;;;;;;3.63;1.47;;;25.00;61.10;;;;;;5076038;28;20837;-88
2021/05/21 11:36:56;;;;;;;2.70;1.37;;;25.00;60.90;;;;;;5075554;28;20441;-88
2021/05/21 11:39:26;;;;;;;3.93;1.30;;;25.10;61.70;;;;;;5075548;28;21053;-88
2021/05/21 11:41:54;;;;;;;2.13;1.20;;;25.10;62.20;;;;;;5075585;28;20517;-88
2021/05/21 11:44:26;;;;;;;1.60;1.10;;;25.10;62.60;;;;;;5075628;28;20459;-88
2021/05/21 11:46:58;;;;;;;2.70;1.50;;;25.20;62.80;;;;;;5074944;28;20913;-89
2021/05/21 11:49:25;;;;;;;4.33;1.43;;;25.20;63.20;;;;;;5075414;28;20431;-88
2021/05/21 11:51:56;;;;;;;2.70;1.77;;;25.20;63.80;;;;;;5075722;28;20445;-88
2021/05/21 11:54:26;;;;;;;4.53;1.60;;;25.20;63.90;;;;;;5075694;28;20482;-89
2021/05/21 11:56:53;;;;;;;2.03;1.43;;;25.20;64.20;;;;;;5075927;28;20538;-88
2021/05/21 11:59:22;;;;;;;2.10;1.30;;;25.20;64.30;;;;;;5075689;28;20441;-89
2021/05/21 12:01:50;;;;;;;3.07;1.50;;;25.20;64.30;;;;;;5075623;28;20453;-88
2021/05/21 12:04:19;;;;;;;4.13;1.60;;;25.20;63.80;;;;;;5075292;28;20557;-89
2021/05/21 12:06:47;;;;;;;3.50;1.60;;;25.20;59.60;;;;;;5075597;28;20494;-88
2021/05/21 12:09:15;;;;;;;3.10;1.60;;;25.20;61.90;;;;;;5075626;28;20458;-88
2021/05/21 12:11:42;;;;;;;2.27;1.50;;;25.20;62.50;;;;;;5075313;28;20481;-87
2021/05/21 12:14:10;;;;;;;3.20;1.60;;;25.10;62.80;;;;;;5074330;28;20884;-90
2021/05/21 12:16:39;;;;;;;3.97;1.47;;;25.20;63.20;;;;;;5074786;28;20446;-88
2021/05/21 12:19:06;;;;;;;11.00;7.60;;;25.20;63.30;;;;;;5074659;28;20455;-87
2021/05/21 12:21:35;;;;;;;48.70;43.67;;;25.20;63.00;;;;;;5074011;28;20443;-88
2021/05/21 12:24:02;;;;;;;60.20;53.77;;;25.20;63.30;;;;;;5075037;28;20438;-88
2021/05/21 12:26:30;;;;;;;60.47;53.77;;;25.20;63.20;;;;;;5074431;28;20944;-88
2021/05/21 12:28:57;;;;;;;55.97;49.83;;;25.20;63.30;;;;;;5074232;28;20782;-88
2021/05/21 12:31:26;;;;;;;56.57;50.77;;;25.20;63.10;;;;;;5074292;28;20482;-89
2021/05/21 12:33:53;;;;;;;59.53;50.33;;;25.20;63.20;;;;;;5074431;28;20526;-88
2021/05/21 12:36:24;;;;;;;49.60;44.50;;;25.20;63.30;;;;;;5074275;28;20491;-88
2021/05/21 12:38:53;;;;;;;48.20;43.30;;;25.20;63.20;;;;;;5074354;28;20486;-88
2021/05/21 12:41:20;;;;;;;45.70;40.83;;;25.20;63.20;;;;;;5074767;28;20451;-88
2021/05/21 12:43:47;;;;;;;52.07;42.47;;;25.20;63.10;;;;;;5074237;28;20454;-91
2021/05/21 12:46:14;;;;;;;44.63;39.50;;;25.20;63.00;;;;;;5074442;28;20449;-88
2021/05/21 12:48:42;;;;;;;44.37;39.67;;;25.20;62.90;;;;;;5075019;28;20959;-89